| Date | Time | Temp. (oF) | Dew Point (oF) | Rel. Hum. (%) | Press. (in.) | Wind Dir. | Wind Speed (mph) | Hourly Rainfall (in.) |
|
|---|---|---|---|---|---|---|---|---|---|
| 1 | 05/28 | 00:00 | 62 | 61 | 97 | 29.87 | ENE | 1 | 0.00 |
| 2 | 05/27 | 23:00 | 62 | 60 | 95 | 29.88 | WSW | 0 | 0.00 |
| 3 | 05/27 | 22:00 | 64 | 61 | 92 | 29.89 | WSW | 0 | 0.00 |
| 4 | 05/27 | 21:00 | 66 | 62 | 88 | 29.88 | WSW | 0 | 0.00 |
| 5 | 05/27 | 20:00 | 69 | 63 | 83 | 29.88 | SSW | 3 | 0.00 |
| 6 | 05/27 | 19:00 | 71 | 64 | 79 | 29.87 | SW | 1 | 0.00 |
| 7 | 05/27 | 18:00 | 71 | 63 | 77 | 29.88 | SSW | 7 | 0.00 |
| 8 | 05/27 | 17:00 | 69 | 63 | 84 | 29.89 | SSW | 2 | 0.00 |
| 9 | 05/27 | 16:00 | 67 | 63 | 88 | 29.93 | SSW | 4 | 0.00 |
| 10 | 05/27 | 15:00 | 66 | 62 | 89 | 29.95 | SSW | 0 | 0.00 |
| 11 | 05/27 | 14:00 | 64 | 61 | 91 | 29.97 | E | 2 | 0.00 |
| 12 | 05/27 | 13:00 | 61 | 59 | 95 | 30.00 | SE | 3 | 0.00 |
| 13 | 05/27 | 12:00 | 58 | 57 | 99 | 30.02 | SW | 0 | 0.00 |
| 14 | 05/27 | 11:00 | 56 | 55 | 100 | 30.04 | SE | 0 | 0.00 |
| 15 | 05/27 | 10:00 | 54 | 54 | 100 | 30.04 | NNE | 0 | 0.00 |
| 16 | 05/27 | 09:00 | 53 | 53 | 100 | 30.05 | ESE | 2 | 0.00 |
| 17 | 05/27 | 08:00 | 52 | 51 | 100 | 30.05 | NE | 4 | 0.00 |
| 18 | 05/27 | 07:00 | 51 | 50 | 100 | 30.05 | ENE | 4 | 0.01 |
| 19 | 05/27 | 06:00 | 51 | 50 | 100 | 30.05 | E | 1 | 0.00 |
| 20 | 05/27 | 05:00 | 51 | 50 | 100 | 30.06 | ENE | 2 | 0.00 |
| 21 | 05/27 | 04:00 | 51 | 50 | 100 | 30.07 | E | 3 | 0.00 |
| 22 | 05/27 | 03:00 | 51 | 50 | 100 | 30.10 | E | 4 | 0.00 |
| 23 | 05/27 | 02:00 | 51 | 50 | 100 | 30.12 | ENE | 3 | 0.00 |
| 24 | 05/27 | 01:00 | 52 | 51 | 100 | 30.13 | ESE | 5 | 0.00 |